Airfield :







YOU CAN JOIN US ON...

 
LOGIN :

Register | Disclaimer

   EN    FR    IT 

 









Legend :    VFR   Marginal VFR   IFR   Intensive IFR   Very Intensive IFR
Visi :
Ceiling :
>= 8 km
>= 3000ft
5 to 8 km
1000 to 3000 ft
1500m to 5 km
500 to 1000 ft
800 to 1500m
200 to 500 ft
< 800m
< 200 ft
Symbols :   Thunderstorms  Fog  Heavy snow  Heavy precipitations  Wind > 20 kt







- Airport Elevation : 270 ft
- IATA code : YMX


CYMX - Montreal International Mirabel

CURRENT METAR :
  • 211000Z 29005KT 240V320 25SM VCSH FEW025 FEW050 07/03 A2979 RMK SC2SC1 SC TR SH W-N SLP092

EXPIRED METARs :
  • 210900Z 27009G18KT 240V310 45SM SCT030 07/03 A2977 RMK SC3 SLP085
  • 210800Z 26008G15KT 230V310 25SM FEW040 BKN090 08/04 A2975 RMK SC1AC5 SLP078

TAF TAF CYMX
Valid from the 21 at 06:00 until the 22 at 06:00 UTC


210538Z 2106/2206 28008KT P6SM SCT020 OVC080
TEMPO 2106/2108 BKN020 OVC080
FM210800 27008KT P6SM BKN030
TEMPO 2108/2113 BKN020
BECMG 2111/2113 29015G25KT
FM211800 31015G30KT P6SM BKN050
BECMG 2122/2124 33008KT
FM220300 33005KT P6SM SCT060 RMK NXT FCST BY 211200Z
CZUL FIR / North America



MET'MAP, your aeronautical weather chart ! - Copyright ORBIFLY December 2007 - Disclaimer

ORBIFLY MET'MAP TEAM :

Programming & Development : Alexandra Zaïnal
Concept & Development : Baudouin d'Aumeries
Co-Development & Prog : Marc-Olivier Méhu
Technical & hardware support : Manuel Goepfert

Contact : metmap@orbifly.com




SOURCES & CREDITS :

   NOAA